sensor_id;sensor_type;location;lat;lon;timestamp;P1;durP1;ratioP1;P2;durP2;ratioP2
20880;SDS011;10600;53.096;8.802;2023-06-04T00:00:28;8.40;;;3.20;;
20880;SDS011;10600;53.096;8.802;2023-06-04T00:01:29;9.75;;;3.30;;
20880;SDS011;10600;53.096;8.802;2023-06-04T00:02:30;8.18;;;3.20;;
20880;SDS011;10600;53.096;8.802;2023-06-04T00:03:30;6.60;;;2.92;;
20880;SDS011;10600;53.096;8.802;2023-06-04T00:04:32;5.38;;;3.10;;
20880;SDS011;10600;53.096;8.802;2023-06-04T00:05:33;8.35;;;3.60;;
20880;SDS011;10600;53.096;8.802;2023-06-04T00:06:33;6.85;;;3.63;;
20880;SDS011;10600;53.096;8.802;2023-06-04T00:07:34;8.60;;;4.03;;
20880;SDS011;10600;53.096;8.802;2023-06-04T00:08:34;9.35;;;4.05;;
20880;SDS011;10600;53.096;8.802;2023-06-04T00:09:35;7.72;;;4.63;;
20880;SDS011;10600;53.096;8.802;2023-06-04T00:10:36;7.20;;;4.13;;
20880;SDS011;10600;53.096;8.802;2023-06-04T00:11:39;8.25;;;4.38;;
20880;SDS011;10600;53.096;8.802;2023-06-04T00:12:40;7.15;;;4.25;;
20880;SDS011;10600;53.096;8.802;2023-06-04T00:13:40;6.25;;;4.15;;
20880;SDS011;10600;53.096;8.802;2023-06-04T00:14:41;9.50;;;4.50;;
20880;SDS011;10600;53.096;8.802;2023-06-04T00:15:42;9.95;;;5.35;;
20880;SDS011;10600;53.096;8.802;2023-06-04T00:16:42;7.05;;;4.13;;
20880;SDS011;10600;53.096;8.802;2023-06-04T00:17:43;9.93;;;3.85;;
20880;SDS011;10600;53.096;8.802;2023-06-04T00:18:44;7.82;;;3.53;;
20880;SDS011;10600;53.096;8.802;2023-06-04T00:19:47;8.88;;;3.80;;
20880;SDS011;10600;53.096;8.802;2023-06-04T00:20:48;8.50;;;3.40;;
20880;SDS011;10600;53.096;8.802;2023-06-04T00:21:48;6.38;;;3.38;;
20880;SDS011;10600;53.096;8.802;2023-06-04T00:22:49;6.63;;;2.92;;
20880;SDS011;10600;53.096;8.802;2023-06-04T00:23:50;6.72;;;3.80;;
20880;SDS011;10600;53.096;8.802;2023-06-04T00:24:51;8.82;;;3.03;;
20880;SDS011;10600;53.096;8.802;2023-06-04T00:25:51;5.93;;;3.33;;
20880;SDS011;10600;53.096;8.802;2023-06-04T00:26:52;9.30;;;3.50;;
20880;SDS011;10600;53.096;8.802;2023-06-04T00:27:52;8.90;;;3.78;;
20880;SDS011;10600;53.096;8.802;2023-06-04T00:28:56;7.90;;;3.88;;
20880;SDS011;10600;53.096;8.802;2023-06-04T00:29:56;6.88;;;3.10;;
20880;SDS011;10600;53.096;8.802;2023-06-04T00:30:57;10.73;;;3.53;;
20880;SDS011;10600;53.096;8.802;2023-06-04T00:31:58;6.82;;;3.17;;
20880;SDS011;10600;53.096;8.802;2023-06-04T00:32:58;6.70;;;3.28;;
20880;SDS011;10600;53.096;8.802;2023-06-04T00:34:02;8.90;;;3.90;;
20880;SDS011;10600;53.096;8.802;2023-06-04T00:35:04;5.03;;;3.00;;
20880;SDS011;10600;53.096;8.802;2023-06-04T00:36:05;7.07;;;3.60;;
20880;SDS011;10600;53.096;8.802;2023-06-04T00:37:06;6.78;;;3.33;;
20880;SDS011;10600;53.096;8.802;2023-06-04T00:38:06;7.25;;;3.45;;
20880;SDS011;10600;53.096;8.802;2023-06-04T00:39:07;9.05;;;3.65;;
20880;SDS011;10600;53.096;8.802;2023-06-04T00:40:08;8.00;;;3.40;;
20880;SDS011;10600;53.096;8.802;2023-06-04T00:41:08;9.32;;;3.50;;
20880;SDS011;10600;53.096;8.802;2023-06-04T00:42:09;8.77;;;3.67;;
20880;SDS011;10600;53.096;8.802;2023-06-04T00:43:10;6.07;;;3.17;;
20880;SDS011;10600;53.096;8.802;2023-06-04T00:44:10;8.20;;;3.42;;
20880;SDS011;10600;53.096;8.802;2023-06-04T00:45:11;6.15;;;2.95;;
20880;SDS011;10600;53.096;8.802;2023-06-04T00:46:13;8.18;;;3.53;;
20880;SDS011;10600;53.096;8.802;2023-06-04T00:47:18;7.55;;;3.55;;
20880;SDS011;10600;53.096;8.802;2023-06-04T00:48:20;6.97;;;3.50;;
20880;SDS011;10600;53.096;8.802;2023-06-04T00:49:21;9.93;;;3.35;;
20880;SDS011;10600;53.096;8.802;2023-06-04T00:50:22;7.82;;;3.25;;
20880;SDS011;10600;53.096;8.802;2023-06-04T00:51:23;9.23;;;3.15;;
20880;SDS011;10600;53.096;8.802;2023-06-04T00:52:25;6.90;;;3.40;;
20880;SDS011;10600;53.096;8.802;2023-06-04T00:53:26;9.23;;;3.22;;
20880;SDS011;10600;53.096;8.802;2023-06-04T00:54:27;4.97;;;3.10;;
20880;SDS011;10600;53.096;8.802;2023-06-04T00:55:28;6.55;;;3.85;;
20880;SDS011;10600;53.096;8.802;2023-06-04T00:56:29;7.95;;;3.88;;
20880;SDS011;10600;53.096;8.802;2023-06-04T00:57:30;7.93;;;2.83;;
20880;SDS011;10600;53.096;8.802;2023-06-04T00:58:31;6.70;;;3.22;;
20880;SDS011;10600;53.096;8.802;2023-06-04T00:59:33;6.30;;;3.20;;
20880;SDS011;10600;53.096;8.802;2023-06-04T01:00:37;5.47;;;3.40;;
20880;SDS011;10600;53.096;8.802;2023-06-04T01:01:48;7.07;;;3.05;;
20880;SDS011;10600;53.096;8.802;2023-06-04T01:02:54;6.47;;;2.97;;
20880;SDS011;10600;53.096;8.802;2023-06-04T01:03:59;7.18;;;3.13;;
20880;SDS011;10600;53.096;8.802;2023-06-04T01:07:39;9.05;;;3.40;;
20880;SDS011;10600;53.096;8.802;2023-06-04T01:08:40;5.45;;;3.10;;
20880;SDS011;10600;53.096;8.802;2023-06-04T01:09:43;3.10;;;2.80;;
20880;SDS011;10600;53.096;8.802;2023-06-04T01:10:53;5.70;;;3.40;;
20880;SDS011;10600;53.096;8.802;2023-06-04T01:11:55;11.27;;;2.88;;
20880;SDS011;10600;53.096;8.802;2023-06-04T01:12:58;5.50;;;3.15;;
20880;SDS011;10600;53.096;8.802;2023-06-04T01:13:58;6.28;;;3.30;;
20880;SDS011;10600;53.096;8.802;2023-06-04T01:14:59;5.60;;;3.03;;
20880;SDS011;10600;53.096;8.802;2023-06-04T01:16:00;5.15;;;3.17;;
20880;SDS011;10600;53.096;8.802;2023-06-04T01:17:21;9.00;;;4.03;;
20880;SDS011;10600;53.096;8.802;2023-06-04T01:18:28;8.77;;;3.40;;
20880;SDS011;10600;53.096;8.802;2023-06-04T01:21:00;9.30;;;3.38;;
20880;SDS011;10600;53.096;8.802;2023-06-04T01:22:03;6.57;;;3.47;;
20880;SDS011;10600;53.096;8.802;2023-06-04T01:23:14;7.07;;;3.30;;
20880;SDS011;10600;53.096;8.802;2023-06-04T01:24:15;9.77;;;4.07;;
20880;SDS011;10600;53.096;8.802;2023-06-04T01:25:21;6.07;;;3.45;;
20880;SDS011;10600;53.096;8.802;2023-06-04T01:26:32;6.47;;;3.85;;
20880;SDS011;10600;53.096;8.802;2023-06-04T01:27:33;8.02;;;3.80;;
20880;SDS011;10600;53.096;8.802;2023-06-04T01:28:35;10.23;;;4.20;;
20880;SDS011;10600;53.096;8.802;2023-06-04T01:29:37;6.72;;;3.60;;
20880;SDS011;10600;53.096;8.802;2023-06-04T01:30:38;6.63;;;3.88;;
20880;SDS011;10600;53.096;8.802;2023-06-04T01:31:43;11.23;;;4.15;;
20880;SDS011;10600;53.096;8.802;2023-06-04T01:32:44;6.95;;;3.80;;
20880;SDS011;10600;53.096;8.802;2023-06-04T01:33:46;5.90;;;3.58;;
20880;SDS011;10600;53.096;8.802;2023-06-04T01:34:47;9.35;;;3.88;;
20880;SDS011;10600;53.096;8.802;2023-06-04T01:35:48;6.82;;;3.90;;
20880;SDS011;10600;53.096;8.802;2023-06-04T01:36:49;5.53;;;3.63;;
20880;SDS011;10600;53.096;8.802;2023-06-04T01:37:50;11.02;;;3.70;;
20880;SDS011;10600;53.096;8.802;2023-06-04T01:38:51;6.95;;;3.63;;
20880;SDS011;10600;53.096;8.802;2023-06-04T01:39:52;8.70;;;4.20;;
20880;SDS011;10600;53.096;8.802;2023-06-04T01:40:53;8.25;;;5.35;;
20880;SDS011;10600;53.096;8.802;2023-06-04T01:42:01;7.28;;;4.50;;
20880;SDS011;10600;53.096;8.802;2023-06-04T01:43:01;12.25;;;4.25;;
20880;SDS011;10600;53.096;8.802;2023-06-04T01:44:02;6.32;;;3.53;;
20880;SDS011;10600;53.096;8.802;2023-06-04T01:45:03;7.70;;;3.92;;
20880;SDS011;10600;53.096;8.802;2023-06-04T01:46:04;6.97;;;3.65;;
20880;SDS011;10600;53.096;8.802;2023-06-04T01:47:05;7.18;;;3.80;;
20880;SDS011;10600;53.096;8.802;2023-06-04T01:48:05;7.05;;;3.30;;
20880;SDS011;10600;53.096;8.802;2023-06-04T01:49:06;7.28;;;3.80;;
20880;SDS011;10600;53.096;8.802;2023-06-04T01:50:07;9.18;;;3.95;;
20880;SDS011;10600;53.096;8.802;2023-06-04T01:51:09;8.50;;;4.43;;
20880;SDS011;10600;53.096;8.802;2023-06-04T01:52:09;9.57;;;4.68;;
20880;SDS011;10600;53.096;8.802;2023-06-04T01:53:11;7.47;;;3.83;;
20880;SDS011;10600;53.096;8.802;2023-06-04T01:54:11;12.32;;;3.88;;
20880;SDS011;10600;53.096;8.802;2023-06-04T01:55:12;10.38;;;4.13;;
20880;SDS011;10600;53.096;8.802;2023-06-04T01:56:14;8.98;;;3.92;;
20880;SDS011;10600;53.096;8.802;2023-06-04T01:57:15;5.90;;;3.65;;
20880;SDS011;10600;53.096;8.802;2023-06-04T01:58:15;7.43;;;3.47;;
20880;SDS011;10600;53.096;8.802;2023-06-04T01:59:26;10.20;;;4.18;;
20880;SDS011;10600;53.096;8.802;2023-06-04T02:00:27;7.20;;;3.88;;
20880;SDS011;10600;53.096;8.802;2023-06-04T02:01:28;7.30;;;3.75;;
20880;SDS011;10600;53.096;8.802;2023-06-04T02:02:28;8.13;;;3.90;;
20880;SDS011;10600;53.096;8.802;2023-06-04T02:03:29;7.38;;;4.05;;
20880;SDS011;10600;53.096;8.802;2023-06-04T02:04:36;10.57;;;4.20;;
20880;SDS011;10600;53.096;8.802;2023-06-04T02:05:37;7.68;;;3.75;;
20880;SDS011;10600;53.096;8.802;2023-06-04T02:06:37;8.05;;;4.50;;
20880;SDS011;10600;53.096;8.802;2023-06-04T02:07:40;7.75;;;3.60;;
20880;SDS011;10600;53.096;8.802;2023-06-04T02:08:41;6.53;;;3.50;;
20880;SDS011;10600;53.096;8.802;2023-06-04T02:09:42;5.65;;;3.53;;
20880;SDS011;10600;53.096;8.802;2023-06-04T02:10:43;10.77;;;4.65;;
20880;SDS011;10600;53.096;8.802;2023-06-04T02:11:43;7.82;;;4.22;;
20880;SDS011;10600;53.096;8.802;2023-06-04T02:12:54;6.22;;;3.72;;
20880;SDS011;10600;53.096;8.802;2023-06-04T02:13:59;8.02;;;3.63;;
20880;SDS011;10600;53.096;8.802;2023-06-04T02:15:00;9.73;;;4.35;;
20880;SDS011;10600;53.096;8.802;2023-06-04T02:16:00;9.38;;;4.57;;
20880;SDS011;10600;53.096;8.802;2023-06-04T02:17:01;6.78;;;3.95;;
20880;SDS011;10600;53.096;8.802;2023-06-04T02:18:17;7.40;;;3.47;;
20880;SDS011;10600;53.096;8.802;2023-06-04T02:19:20;9.55;;;3.90;;
20880;SDS011;10600;53.096;8.802;2023-06-04T02:20:21;10.10;;;4.43;;
20880;SDS011;10600;53.096;8.802;2023-06-04T02:21:22;9.45;;;5.18;;
20880;SDS011;10600;53.096;8.802;2023-06-04T02:22:22;9.38;;;4.07;;
20880;SDS011;10600;53.096;8.802;2023-06-04T02:23:23;7.55;;;4.35;;
20880;SDS011;10600;53.096;8.802;2023-06-04T02:24:24;8.80;;;4.60;;
20880;SDS011;10600;53.096;8.802;2023-06-04T02:25:25;9.60;;;4.15;;
20880;SDS011;10600;53.096;8.802;2023-06-04T02:26:26;5.45;;;3.83;;
20880;SDS011;10600;53.096;8.802;2023-06-04T02:27:26;8.85;;;4.13;;
20880;SDS011;10600;53.096;8.802;2023-06-04T02:28:28;5.60;;;3.92;;
20880;SDS011;10600;53.096;8.802;2023-06-04T02:29:28;6.25;;;4.10;;
20880;SDS011;10600;53.096;8.802;2023-06-04T02:30:29;8.05;;;4.05;;
20880;SDS011;10600;53.096;8.802;2023-06-04T02:31:29;7.93;;;4.55;;
20880;SDS011;10600;53.096;8.802;2023-06-04T02:32:30;7.97;;;4.45;;
20880;SDS011;10600;53.096;8.802;2023-06-04T02:33:31;6.65;;;4.00;;
20880;SDS011;10600;53.096;8.802;2023-06-04T02:34:32;9.18;;;4.78;;
20880;SDS011;10600;53.096;8.802;2023-06-04T02:35:34;7.90;;;4.35;;
20880;SDS011;10600;53.096;8.802;2023-06-04T02:36:34;8.65;;;4.32;;
20880;SDS011;10600;53.096;8.802;2023-06-04T02:37:35;8.90;;;5.10;;
20880;SDS011;10600;53.096;8.802;2023-06-04T02:38:36;6.88;;;4.00;;
20880;SDS011;10600;53.096;8.802;2023-06-04T02:39:36;7.03;;;4.15;;
20880;SDS011;10600;53.096;8.802;2023-06-04T02:40:38;7.82;;;4.63;;
20880;SDS011;10600;53.096;8.802;2023-06-04T02:41:38;12.13;;;4.30;;
20880;SDS011;10600;53.096;8.802;2023-06-04T02:42:39;7.75;;;4.05;;
20880;SDS011;10600;53.096;8.802;2023-06-04T02:43:40;12.50;;;4.88;;
20880;SDS011;10600;53.096;8.802;2023-06-04T02:44:40;9.38;;;4.53;;
20880;SDS011;10600;53.096;8.802;2023-06-04T02:45:41;10.43;;;4.53;;
20880;SDS011;10600;53.096;8.802;2023-06-04T02:46:42;11.05;;;4.43;;
20880;SDS011;10600;53.096;8.802;2023-06-04T02:47:43;8.00;;;3.80;;
20880;SDS011;10600;53.096;8.802;2023-06-04T02:48:43;9.38;;;4.30;;
20880;SDS011;10600;53.096;8.802;2023-06-04T02:49:44;7.70;;;4.30;;
20880;SDS011;10600;53.096;8.802;2023-06-04T02:50:46;11.63;;;5.07;;
20880;SDS011;10600;53.096;8.802;2023-06-04T02:51:47;7.75;;;4.15;;
20880;SDS011;10600;53.096;8.802;2023-06-04T02:52:47;8.90;;;4.20;;
20880;SDS011;10600;53.096;8.802;2023-06-04T02:53:48;7.50;;;4.47;;
20880;SDS011;10600;53.096;8.802;2023-06-04T02:54:48;8.88;;;4.60;;
20880;SDS011;10600;53.096;8.802;2023-06-04T02:55:49;8.98;;;4.80;;
20880;SDS011;10600;53.096;8.802;2023-06-04T02:56:53;10.43;;;5.38;;
20880;SDS011;10600;53.096;8.802;2023-06-04T02:57:53;11.75;;;5.40;;
20880;SDS011;10600;53.096;8.802;2023-06-04T02:58:54;7.38;;;4.40;;
20880;SDS011;10600;53.096;8.802;2023-06-04T02:59:56;10.70;;;4.90;;
20880;SDS011;10600;53.096;8.802;2023-06-04T03:00:56;10.52;;;4.97;;
20880;SDS011;10600;53.096;8.802;2023-06-04T03:01:57;9.57;;;4.43;;
20880;SDS011;10600;53.096;8.802;2023-06-04T03:02:58;9.90;;;4.60;;
20880;SDS011;10600;53.096;8.802;2023-06-04T03:04:02;9.50;;;4.95;;
20880;SDS011;10600;53.096;8.802;2023-06-04T03:05:05;12.15;;;5.07;;
20880;SDS011;10600;53.096;8.802;2023-06-04T03:06:08;9.40;;;5.38;;
20880;SDS011;10600;53.096;8.802;2023-06-04T03:07:08;8.75;;;4.75;;
20880;SDS011;10600;53.096;8.802;2023-06-04T03:08:11;10.90;;;4.88;;
20880;SDS011;10600;53.096;8.802;2023-06-04T03:09:12;10.88;;;4.97;;
20880;SDS011;10600;53.096;8.802;2023-06-04T03:10:13;10.30;;;5.10;;
20880;SDS011;10600;53.096;8.802;2023-06-04T03:11:15;7.72;;;4.72;;
20880;SDS011;10600;53.096;8.802;2023-06-04T03:12:16;12.82;;;4.93;;
20880;SDS011;10600;53.096;8.802;2023-06-04T03:13:17;9.57;;;5.18;;
20880;SDS011;10600;53.096;8.802;2023-06-04T03:14:17;10.57;;;4.90;;
20880;SDS011;10600;53.096;8.802;2023-06-04T03:15:18;14.90;;;4.57;;
20880;SDS011;10600;53.096;8.802;2023-06-04T03:16:19;10.80;;;4.55;;
20880;SDS011;10600;53.096;8.802;2023-06-04T03:17:20;10.48;;;4.78;;
20880;SDS011;10600;53.096;8.802;2023-06-04T03:18:21;10.48;;;5.15;;
20880;SDS011;10600;53.096;8.802;2023-06-04T03:19:22;11.13;;;4.88;;
20880;SDS011;10600;53.096;8.802;2023-06-04T03:20:23;10.18;;;5.43;;
20880;SDS011;10600;53.096;8.802;2023-06-04T03:21:26;10.80;;;5.03;;
20880;SDS011;10600;53.096;8.802;2023-06-04T03:22:28;10.85;;;4.93;;
20880;SDS011;10600;53.096;8.802;2023-06-04T03:23:29;12.25;;;5.22;;
20880;SDS011;10600;53.096;8.802;2023-06-04T03:24:33;13.40;;;5.50;;
20880;SDS011;10600;53.096;8.802;2023-06-04T03:25:36;9.63;;;5.60;;
20880;SDS011;10600;53.096;8.802;2023-06-04T03:26:36;9.20;;;5.03;;
20880;SDS011;10600;53.096;8.802;2023-06-04T03:27:37;11.13;;;4.57;;
20880;SDS011;10600;53.096;8.802;2023-06-04T03:28:38;9.48;;;5.65;;
20880;SDS011;10600;53.096;8.802;2023-06-04T03:29:38;11.35;;;5.50;;
20880;SDS011;10600;53.096;8.802;2023-06-04T03:30:40;9.00;;;5.35;;
20880;SDS011;10600;53.096;8.802;2023-06-04T03:31:40;11.13;;;5.10;;
20880;SDS011;10600;53.096;8.802;2023-06-04T03:32:44;10.15;;;5.43;;
20880;SDS011;10600;53.096;8.802;2023-06-04T03:33:45;10.98;;;5.18;;
20880;SDS011;10600;53.096;8.802;2023-06-04T03:34:46;13.07;;;5.82;;
20880;SDS011;10600;53.096;8.802;2023-06-04T03:35:46;13.02;;;5.60;;
20880;SDS011;10600;53.096;8.802;2023-06-04T03:36:48;9.52;;;4.93;;
20880;SDS011;10600;53.096;8.802;2023-06-04T03:37:48;8.60;;;5.05;;
20880;SDS011;10600;53.096;8.802;2023-06-04T03:38:49;9.73;;;5.07;;
20880;SDS011;10600;53.096;8.802;2023-06-04T03:39:49;12.27;;;4.85;;
20880;SDS011;10600;53.096;8.802;2023-06-04T03:40:50;10.85;;;5.05;;
20880;SDS011;10600;53.096;8.802;2023-06-04T03:41:53;11.57;;;5.45;;
20880;SDS011;10600;53.096;8.802;2023-06-04T03:42:54;10.63;;;5.55;;
20880;SDS011;10600;53.096;8.802;2023-06-04T03:43:54;10.32;;;6.20;;
20880;SDS011;10600;53.096;8.802;2023-06-04T03:44:55;8.75;;;5.35;;
20880;SDS011;10600;53.096;8.802;2023-06-04T03:45:58;12.63;;;5.95;;
20880;SDS011;10600;53.096;8.802;2023-06-04T03:46:58;10.73;;;6.50;;
20880;SDS011;10600;53.096;8.802;2023-06-04T03:47:59;13.30;;;6.40;;
20880;SDS011;10600;53.096;8.802;2023-06-04T03:48:59;10.50;;;6.30;;
20880;SDS011;10600;53.096;8.802;2023-06-04T03:50:01;11.50;;;5.70;;
20880;SDS011;10600;53.096;8.802;2023-06-04T03:51:02;12.70;;;5.93;;
20880;SDS011;10600;53.096;8.802;2023-06-04T03:52:02;10.85;;;6.22;;
20880;SDS011;10600;53.096;8.802;2023-06-04T03:53:03;12.38;;;6.45;;
20880;SDS011;10600;53.096;8.802;2023-06-04T03:54:07;9.80;;;5.43;;
20880;SDS011;10600;53.096;8.802;2023-06-04T03:55:08;9.75;;;5.60;;
20880;SDS011;10600;53.096;8.802;2023-06-04T03:56:08;9.63;;;5.88;;
20880;SDS011;10600;53.096;8.802;2023-06-04T03:57:09;7.75;;;5.18;;
20880;SDS011;10600;53.096;8.802;2023-06-04T03:58:09;11.52;;;6.28;;
20880;SDS011;10600;53.096;8.802;2023-06-04T03:59:11;10.13;;;6.10;;
20880;SDS011;10600;53.096;8.802;2023-06-04T04:00:12;13.18;;;6.50;;
20880;SDS011;10600;53.096;8.802;2023-06-04T04:01:14;10.65;;;6.30;;
20880;SDS011;10600;53.096;8.802;2023-06-04T04:02:14;11.32;;;6.50;;
20880;SDS011;10600;53.096;8.802;2023-06-04T04:03:15;13.52;;;6.28;;
20880;SDS011;10600;53.096;8.802;2023-06-04T04:04:15;10.00;;;5.68;;
20880;SDS011;10600;53.096;8.802;2023-06-04T04:05:16;11.85;;;6.45;;
20880;SDS011;10600;53.096;8.802;2023-06-04T04:06:17;10.88;;;5.95;;
20880;SDS011;10600;53.096;8.802;2023-06-04T04:07:18;9.45;;;5.57;;
20880;SDS011;10600;53.096;8.802;2023-06-04T04:08:21;10.98;;;5.72;;
20880;SDS011;10600;53.096;8.802;2023-06-04T04:09:21;9.15;;;5.65;;
20880;SDS011;10600;53.096;8.802;2023-06-04T04:10:22;13.30;;;6.10;;
20880;SDS011;10600;53.096;8.802;2023-06-04T04:11:22;11.32;;;6.22;;
20880;SDS011;10600;53.096;8.802;2023-06-04T04:12:23;10.23;;;6.10;;
20880;SDS011;10600;53.096;8.802;2023-06-04T04:13:24;12.48;;;5.70;;
20880;SDS011;10600;53.096;8.802;2023-06-04T04:14:24;13.88;;;5.57;;
20880;SDS011;10600;53.096;8.802;2023-06-04T04:15:25;9.10;;;5.88;;
20880;SDS011;10600;53.096;8.802;2023-06-04T04:16:26;10.02;;;5.72;;
20880;SDS011;10600;53.096;8.802;2023-06-04T04:17:27;10.95;;;5.78;;
20880;SDS011;10600;53.096;8.802;2023-06-04T04:18:28;15.48;;;6.18;;
20880;SDS011;10600;53.096;8.802;2023-06-04T04:19:36;10.82;;;6.00;;
20880;SDS011;10600;53.096;8.802;2023-06-04T04:20:36;9.95;;;5.90;;
20880;SDS011;10600;53.096;8.802;2023-06-04T04:21:37;10.43;;;6.28;;
20880;SDS011;10600;53.096;8.802;2023-06-04T04:22:41;11.68;;;6.05;;
20880;SDS011;10600;53.096;8.802;2023-06-04T04:23:44;11.40;;;5.75;;
20880;SDS011;10600;53.096;8.802;2023-06-04T04:24:45;10.90;;;5.97;;
20880;SDS011;10600;53.096;8.802;2023-06-04T04:25:46;11.55;;;6.22;;
20880;SDS011;10600;53.096;8.802;2023-06-04T04:26:48;12.27;;;6.40;;
20880;SDS011;10600;53.096;8.802;2023-06-04T04:27:53;11.60;;;5.63;;
20880;SDS011;10600;53.096;8.802;2023-06-04T04:28:56;10.07;;;6.38;;
20880;SDS011;10600;53.096;8.802;2023-06-04T04:29:57;13.50;;;6.65;;
20880;SDS011;10600;53.096;8.802;2023-06-04T04:31:00;10.10;;;5.45;;
20880;SDS011;10600;53.096;8.802;2023-06-04T04:32:02;9.00;;;5.50;;
20880;SDS011;10600;53.096;8.802;2023-06-04T04:33:10;12.43;;;6.25;;
20880;SDS011;10600;53.096;8.802;2023-06-04T04:34:10;11.25;;;6.03;;
20880;SDS011;10600;53.096;8.802;2023-06-04T04:35:11;15.02;;;6.22;;
20880;SDS011;10600;53.096;8.802;2023-06-04T04:36:12;10.48;;;6.43;;
20880;SDS011;10600;53.096;8.802;2023-06-04T04:37:13;10.50;;;5.88;;
20880;SDS011;10600;53.096;8.802;2023-06-04T04:38:14;11.70;;;6.40;;
20880;SDS011;10600;53.096;8.802;2023-06-04T04:39:22;12.52;;;6.53;;
20880;SDS011;10600;53.096;8.802;2023-06-04T04:40:24;13.10;;;7.20;;
20880;SDS011;10600;53.096;8.802;2023-06-04T04:41:24;12.07;;;6.68;;
20880;SDS011;10600;53.096;8.802;2023-06-04T04:42:26;9.77;;;5.85;;
20880;SDS011;10600;53.096;8.802;2023-06-04T04:43:33;10.70;;;6.47;;
20880;SDS011;10600;53.096;8.802;2023-06-04T04:44:34;8.32;;;6.00;;
20880;SDS011;10600;53.096;8.802;2023-06-04T04:45:35;12.18;;;6.55;;
20880;SDS011;10600;53.096;8.802;2023-06-04T04:46:35;11.30;;;6.05;;
20880;SDS011;10600;53.096;8.802;2023-06-04T04:47:36;16.55;;;6.55;;
20880;SDS011;10600;53.096;8.802;2023-06-04T04:48:37;12.93;;;6.53;;
20880;SDS011;10600;53.096;8.802;2023-06-04T04:49:40;11.50;;;6.43;;
20880;SDS011;10600;53.096;8.802;2023-06-04T04:50:41;12.38;;;6.82;;
20880;SDS011;10600;53.096;8.802;2023-06-04T04:51:41;13.23;;;7.05;;
20880;SDS011;10600;53.096;8.802;2023-06-04T04:52:42;12.15;;;6.65;;
20880;SDS011;10600;53.096;8.802;2023-06-04T04:53:43;9.40;;;6.35;;
20880;SDS011;10600;53.096;8.802;2023-06-04T04:54:43;9.98;;;6.20;;
20880;SDS011;10600;53.096;8.802;2023-06-04T04:55:44;11.27;;;6.30;;
20880;SDS011;10600;53.096;8.802;2023-06-04T04:56:45;13.15;;;6.55;;
20880;SDS011;10600;53.096;8.802;2023-06-04T04:57:45;12.05;;;6.47;;
20880;SDS011;10600;53.096;8.802;2023-06-04T04:58:46;12.50;;;5.78;;
20880;SDS011;10600;53.096;8.802;2023-06-04T04:59:46;10.68;;;6.30;;
20880;SDS011;10600;53.096;8.802;2023-06-04T05:00:47;14.88;;;7.32;;
20880;SDS011;10600;53.096;8.802;2023-06-04T05:01:48;13.25;;;7.18;;
20880;SDS011;10600;53.096;8.802;2023-06-04T05:02:48;16.95;;;7.35;;
20880;SDS011;10600;53.096;8.802;2023-06-04T05:03:49;16.45;;;7.75;;
20880;SDS011;10600;53.096;8.802;2023-06-04T05:04:49;12.30;;;6.50;;
20880;SDS011;10600;53.096;8.802;2023-06-04T05:05:50;11.65;;;7.18;;
20880;SDS011;10600;53.096;8.802;2023-06-04T05:06:51;10.68;;;6.68;;
20880;SDS011;10600;53.096;8.802;2023-06-04T05:07:51;11.23;;;6.32;;
20880;SDS011;10600;53.096;8.802;2023-06-04T05:08:52;13.43;;;6.78;;
20880;SDS011;10600;53.096;8.802;2023-06-04T05:09:53;10.25;;;6.55;;
20880;SDS011;10600;53.096;8.802;2023-06-04T05:10:53;11.25;;;6.25;;
20880;SDS011;10600;53.096;8.802;2023-06-04T05:11:54;9.55;;;6.00;;
20880;SDS011;10600;53.096;8.802;2023-06-04T05:12:56;14.68;;;6.53;;
20880;SDS011;10600;53.096;8.802;2023-06-04T05:13:58;14.80;;;6.65;;
20880;SDS011;10600;53.096;8.802;2023-06-04T05:14:58;11.02;;;6.20;;
20880;SDS011;10600;53.096;8.802;2023-06-04T05:15:59;15.98;;;6.90;;
20880;SDS011;10600;53.096;8.802;2023-06-04T05:17:06;12.27;;;6.32;;
20880;SDS011;10600;53.096;8.802;2023-06-04T05:18:06;8.63;;;5.72;;
20880;SDS011;10600;53.096;8.802;2023-06-04T05:19:07;10.70;;;6.13;;
20880;SDS011;10600;53.096;8.802;2023-06-04T05:20:10;11.82;;;6.85;;
20880;SDS011;10600;53.096;8.802;2023-06-04T05:21:11;11.07;;;6.75;;
20880;SDS011;10600;53.096;8.802;2023-06-04T05:22:12;14.90;;;7.25;;
20880;SDS011;10600;53.096;8.802;2023-06-04T05:23:15;14.23;;;6.55;;
20880;SDS011;10600;53.096;8.802;2023-06-04T05:24:16;11.02;;;6.25;;
20880;SDS011;10600;53.096;8.802;2023-06-04T05:25:17;12.52;;;5.95;;
20880;SDS011;10600;53.096;8.802;2023-06-04T05:26:18;15.32;;;6.82;;
20880;SDS011;10600;53.096;8.802;2023-06-04T05:27:22;16.30;;;7.47;;
20880;SDS011;10600;53.096;8.802;2023-06-04T05:28:23;14.38;;;7.20;;
20880;SDS011;10600;53.096;8.802;2023-06-04T05:29:26;17.35;;;8.18;;
20880;SDS011;10600;53.096;8.802;2023-06-04T05:30:27;16.40;;;6.55;;
20880;SDS011;10600;53.096;8.802;2023-06-04T05:31:27;20.85;;;7.97;;
20880;SDS011;10600;53.096;8.802;2023-06-04T05:32:28;19.38;;;8.63;;
20880;SDS011;10600;53.096;8.802;2023-06-04T05:33:30;18.63;;;7.40;;
20880;SDS011;10600;53.096;8.802;2023-06-04T05:34:31;23.48;;;9.65;;
20880;SDS011;10600;53.096;8.802;2023-06-04T05:35:32;18.67;;;7.55;;
20880;SDS011;10600;53.096;8.802;2023-06-04T05:36:33;18.45;;;8.20;;
20880;SDS011;10600;53.096;8.802;2023-06-04T05:37:35;21.42;;;9.13;;
20880;SDS011;10600;53.096;8.802;2023-06-04T05:38:37;23.38;;;7.80;;
20880;SDS011;10600;53.096;8.802;2023-06-04T05:39:38;21.88;;;7.78;;
20880;SDS011;10600;53.096;8.802;2023-06-04T05:40:39;20.88;;;8.07;;
20880;SDS011;10600;53.096;8.802;2023-06-04T05:41:39;16.83;;;7.50;;
20880;SDS011;10600;53.096;8.802;2023-06-04T05:42:40;21.35;;;8.45;;
20880;SDS011;10600;53.096;8.802;2023-06-04T05:43:41;18.75;;;7.75;;
20880;SDS011;10600;53.096;8.802;2023-06-04T05:44:44;18.60;;;7.75;;
20880;SDS011;10600;53.096;8.802;2023-06-04T05:45:45;16.50;;;8.40;;
20880;SDS011;10600;53.096;8.802;2023-06-04T05:46:46;20.90;;;8.32;;
20880;SDS011;10600;53.096;8.802;2023-06-04T05:47:47;20.42;;;8.38;;
20880;SDS011;10600;53.096;8.802;2023-06-04T05:48:47;17.98;;;7.57;;
20880;SDS011;10600;53.096;8.802;2023-06-04T05:49:48;15.52;;;7.28;;
20880;SDS011;10600;53.096;8.802;2023-06-04T05:50:50;19.85;;;8.07;;
20880;SDS011;10600;53.096;8.802;2023-06-04T05:51:50;11.30;;;6.15;;
20880;SDS011;10600;53.096;8.802;2023-06-04T05:52:51;14.45;;;7.03;;
20880;SDS011;10600;53.096;8.802;2023-06-04T05:53:51;13.50;;;8.27;;
20880;SDS011;10600;53.096;8.802;2023-06-04T05:54:52;13.35;;;6.97;;
20880;SDS011;10600;53.096;8.802;2023-06-04T05:55:53;11.35;;;6.32;;
20880;SDS011;10600;53.096;8.802;2023-06-04T05:56:53;11.52;;;6.50;;
20880;SDS011;10600;53.096;8.802;2023-06-04T05:57:54;15.93;;;6.65;;
20880;SDS011;10600;53.096;8.802;2023-06-04T05:58:55;10.60;;;6.40;;
20880;SDS011;10600;53.096;8.802;2023-06-04T05:59:56;9.77;;;5.88;;
20880;SDS011;10600;53.096;8.802;2023-06-04T06:00:56;15.27;;;6.32;;
20880;SDS011;10600;53.096;8.802;2023-06-04T06:01:57;13.20;;;7.40;;
20880;SDS011;10600;53.096;8.802;2023-06-04T06:02:58;11.80;;;6.00;;
20880;SDS011;10600;53.096;8.802;2023-06-04T06:04:00;11.27;;;6.25;;
20880;SDS011;10600;53.096;8.802;2023-06-04T06:05:01;11.52;;;5.85;;
20880;SDS011;10600;53.096;8.802;2023-06-04T06:06:01;10.18;;;5.50;;
20880;SDS011;10600;53.096;8.802;2023-06-04T06:07:02;10.07;;;5.72;;
20880;SDS011;10600;53.096;8.802;2023-06-04T06:08:03;8.65;;;5.65;;
20880;SDS011;10600;53.096;8.802;2023-06-04T06:09:05;16.40;;;6.22;;
20880;SDS011;10600;53.096;8.802;2023-06-04T06:10:05;15.02;;;6.00;;
20880;SDS011;10600;53.096;8.802;2023-06-04T06:11:07;13.98;;;6.03;;
20880;SDS011;10600;53.096;8.802;2023-06-04T06:12:08;10.23;;;6.22;;